Time;durP1;ratioP1;P1;durP2;ratioP2;P2;SDS_P1;SDS_P2;PMS_P1;PMS_P2;Temp;Humidity;BMP_temperature;BMP_pressure;BME280_temperature;BME280_humidity;BME280_pressure;Samples;Min_cycle;Max_cycle;Signal;HPM_P1;HPM_P2
2023/03/30 00:09:10;;;;;;;1156.55;999.90;;;;;;;21.53;44.89;100820.75;20515534;28;20407;-76
2023/03/30 00:19:11;;;;;;;1155.22;999.90;;;;;;;21.52;44.96;100814.66;20535350;28;20130;-76
2023/03/30 00:29:11;;;;;;;1157.63;999.90;;;;;;;21.49;44.70;100811.41;20527831;28;20038;-76
2023/03/30 00:39:12;;;;;;;1156.68;999.90;;;;;;;21.47;44.72;100801.00;20544313;28;20137;-76
2023/03/30 00:49:13;;;;;;;1154.80;999.90;;;;;;;21.47;44.64;100789.59;20555231;28;20075;-75
2023/03/30 00:59:14;;;;;;;1153.75;999.90;;;;;;;21.43;44.77;100776.66;20558899;28;20039;-76
2023/03/30 01:09:15;;;;;;;1154.65;999.90;;;;;;;21.43;44.90;100766.13;20543919;28;20041;-76
2023/03/30 01:19:35;;;;;;;1157.10;999.90;;;;;;;21.45;44.49;100744.91;20561641;28;20043;-75
2023/03/30 01:30:11;;;;;;;1155.80;999.90;;;;;;;21.43;44.04;100736.28;20555742;28;20466;-77
2023/03/30 01:40:46;;;;;;;1155.68;999.90;;;;;;;21.38;44.77;100722.63;20497592;28;20057;-75
2023/03/30 01:51:10;;;;;;;1153.20;999.90;;;;;;;21.39;44.38;100719.03;20541652;28;20047;-74
2023/03/30 02:01:16;;;;;;;1155.22;999.90;;;;;;;21.38;44.28;100727.88;20543172;28;20038;-76
2023/03/30 02:11:16;;;;;;;1155.22;999.90;;;;;;;21.36;44.78;100735.03;20549481;28;20058;-75
2023/03/30 02:21:17;;;;;;;1154.07;999.90;;;;;;;21.31;44.65;100716.94;20557042;28;20042;-75
2023/03/30 02:31:18;;;;;;;1156.35;999.90;;;;;;;21.31;44.49;100697.66;20545935;28;20039;-76
2023/03/30 02:41:45;;;;;;;1155.15;999.90;;;;;;;21.31;44.41;100711.66;20544011;28;20051;-76
2023/03/30 02:51:53;;;;;;;1154.15;999.90;;;;;;;21.31;44.41;100714.31;20532000;28;20054;-76
2023/03/30 03:02:07;;;;;;;1152.47;999.90;;;;;;;21.30;44.44;100698.63;20542482;28;20090;-77
2023/03/30 03:12:07;;;;;;;1153.00;999.90;;;;;;;21.25;44.77;100712.97;20546707;28;20066;-76
2023/03/30 03:22:07;;;;;;;1152.32;999.90;;;;;;;21.24;44.53;100707.81;20551268;28;20046;-76
2023/03/30 03:32:10;;;;;;;1154.32;999.90;;;;;;;21.23;44.25;100709.59;20543691;28;20062;-76
2023/03/30 03:42:10;;;;;;;1148.47;999.90;;;;;;;21.20;44.68;100727.41;20534776;28;20039;-75
2023/03/30 03:52:12;;;;;;;1155.80;999.90;;;;;;;21.23;44.51;100716.69;20518125;28;20053;-75
2023/03/30 04:02:12;;;;;;;1149.93;999.90;;;;;;;21.22;43.90;100705.28;20516609;28;20051;-75
2023/03/30 04:12:13;;;;;;;1147.93;999.90;;;;;;;21.22;44.66;100693.91;20518802;28;20077;-72
2023/03/30 04:22:13;;;;;;;1153.15;999.90;;;;;;;21.38;45.95;100683.09;20504756;28;20273;-76
2023/03/30 04:32:19;;;;;;;1153.75;999.90;;;;;;;21.49;46.51;100680.50;20513201;28;20129;-76
2023/03/30 04:42:20;;;;;;;1158.80;999.90;;;;;;;21.59;46.02;100691.22;20517911;28;20146;-77
2023/03/30 04:52:21;;;;;;;1159.32;999.90;;;;;;;21.64;45.86;100678.56;20526140;28;20047;-73
2023/03/30 05:02:21;;;;;;;1161.28;999.90;;;;;;;21.60;44.26;100663.94;20515588;28;20102;-75
2023/03/30 05:12:22;;;;;;;1156.80;999.90;;;;;;;21.61;42.58;100668.25;20520741;28;20510;-79
2023/03/30 05:22:22;;;;;;;1061.10;977.42;;;;;;;21.52;41.22;100682.06;20544444;28;20070;-80
2023/03/30 05:32:32;;;;;;;1130.05;999.90;;;;;;;21.57;42.11;100672.06;20541546;28;20129;-80
2023/03/30 05:42:32;;;;;;;1060.63;976.40;;;;;;;21.59;42.25;100654.34;20511938;28;20047;-74
2023/03/30 05:52:33;;;;;;;1104.68;999.90;;;;;;;21.59;41.66;100657.84;20532518;28;20055;-75
2023/03/30 06:02:34;;;;;;;1029.13;946.83;;;;;;;21.66;43.00;100663.47;20523652;28;20066;-74
2023/03/30 06:12:35;;;;;;;1033.25;950.72;;;;;;;21.71;43.08;100661.31;20528542;28;20071;-76
2023/03/30 06:22:35;;;;;;;1035.63;952.47;;;;;;;21.74;43.35;100645.28;20536149;28;20066;-74
2023/03/30 06:32:36;;;;;;;1085.95;998.17;;;;;;;21.79;43.68;100637.03;20532496;28;20050;-72
2023/03/30 06:42:40;;;;;;;1073.18;988.53;;;;;;;21.85;43.75;100633.06;20526386;28;20108;-73
2023/03/30 06:52:40;;;;;;;1091.10;999.90;;;;;;;21.88;43.80;100627.56;20515983;28;20068;-73
2023/03/30 07:02:41;;;;;;;1118.47;999.90;;;;;;;21.91;43.61;100630.00;20515229;28;20050;-73
2023/03/30 07:12:42;;;;;;;1038.75;955.42;;;;;;;21.94;43.60;100636.81;20522924;28;20070;-73
2023/03/30 07:22:42;;;;;;;1030.47;947.03;;;;;;;21.94;43.87;100631.56;20528531;28;20502;-73
2023/03/30 07:32:46;;;;;;;943.42;865.30;;;;;;;21.97;43.82;100631.31;20522540;28;20050;-72
2023/03/30 07:42:46;;;;;;;925.33;848.38;;;;;;;21.99;44.08;100635.50;20526394;28;20050;-73
2023/03/30 07:52:49;;;;;;;934.40;856.83;;;;;;;22.01;43.60;100630.13;20531132;28;20053;-73
2023/03/30 08:02:50;;;;;;;994.35;913.47;;;;;;;22.05;43.67;100637.66;20530027;28;20125;-73
2023/03/30 08:12:50;;;;;;;1001.67;920.20;;;;;;;22.09;43.48;100624.25;20526108;28;20154;-75
2023/03/30 08:22:51;;;;;;;997.53;915.92;;;;;;;22.11;43.90;100625.81;20531833;28;20432;-74
2023/03/30 08:32:52;;;;;;;996.60;915.33;;;;;;;22.14;43.55;100622.09;20534198;28;20473;-73
2023/03/30 08:43:13;;;;;;;996.58;915.45;;;;;;;22.13;43.65;100626.53;20533710;28;20055;-74
2023/03/30 08:53:14;;;;;;;997.75;916.33;;;;;;;22.15;43.50;100626.41;20544414;28;20031;-73
2023/03/30 09:03:37;;;;;;;1021.37;938.57;;;;;;;22.16;43.57;100612.25;20538639;28;20047;-74
2023/03/30 09:13:42;;;;;;;1033.30;950.13;;;;;;;22.14;43.81;100585.16;20539965;28;20361;-75
2023/03/30 09:23:43;;;;;;;1032.10;948.97;;;;;;;22.12;43.62;100594.97;20527600;28;20117;-75
2023/03/30 09:33:45;;;;;;;1053.90;969.67;;;;;;;22.13;43.76;100576.44;20538904;28;20711;-75
2023/03/30 09:43:48;;;;;;;1051.13;966.90;;;;;;;22.12;43.39;100553.66;20536067;28;20560;-75
2023/03/30 09:54:00;;;;;;;1068.55;983.53;;;;;;;22.12;42.88;100551.00;20533585;28;20054;-72
2023/03/30 10:04:07;;;;;;;1131.50;999.90;;;;;;;22.13;43.31;100552.69;20533805;28;20043;-71
2023/03/30 10:14:26;;;;;;;1147.85;999.90;;;;;;;22.16;43.60;100533.97;20524085;28;20467;-71
2023/03/30 10:24:30;;;;;;;1084.32;998.17;;;;;;;22.18;43.77;100518.00;20519063;28;20090;-70
2023/03/30 10:34:41;;;;;;;1060.55;975.83;;;;;;;22.15;43.57;100500.63;20529164;28;20046;-70
2023/03/30 10:44:48;;;;;;;1054.88;970.65;;;;;;;22.15;43.59;100487.44;20530946;28;20078;-71
2023/03/30 10:54:59;;;;;;;1057.15;972.72;;;;;;;22.14;43.75;100467.34;20533734;28;20059;-70
2023/03/30 11:05:14;;;;;;;1092.65;999.90;;;;;;;22.17;43.45;100453.06;20524727;28;20039;-70
2023/03/30 11:15:20;;;;;;;1087.32;998.92;;;;;;;22.21;43.74;100462.41;20522123;28;20066;-70
2023/03/30 11:25:25;;;;;;;1170.95;999.90;;;;;;;22.18;43.73;100442.38;20530604;28;20126;-70
2023/03/30 11:35:38;;;;;;;1101.47;999.90;;;;;;;22.22;43.40;100448.25;20510200;28;20117;-70
2023/03/30 11:45:42;;;;;;;1124.13;999.90;;;;;;;22.19;43.69;100428.25;20508729;28;20068;-70
2023/03/30 11:55:55;;;;;;;1096.13;999.90;;;;;;;22.22;43.71;100403.41;20513198;28;20046;-76
2023/03/30 12:06:24;;;;;;;995.03;913.83;;;;;;;22.23;43.74;100400.63;20520533;28;20054;-73
2023/03/30 12:16:40;;;;;;;994.20;913.08;;;;;;;22.27;43.68;100376.66;20523735;28;20455;-73
2023/03/30 12:26:40;;;;;;;1076.97;991.05;;;;;;;22.31;43.44;100344.59;20535086;28;20113;-72
2023/03/30 12:36:51;;;;;;;1051.93;967.53;;;;;;;22.34;43.87;100336.44;20536950;28;21386;-74
2023/03/30 12:47:08;;;;;;;1050.28;965.88;;;;;;;22.33;43.81;100318.94;20538402;28;20134;-72
2023/03/30 12:57:41;;;;;;;1172.35;999.90;;;;;;;22.33;43.81;100295.22;20540662;28;20046;-72
2023/03/30 13:07:45;;;;;;;1175.20;999.90;;;;;;;22.32;43.62;100279.50;20552306;28;20059;-72
2023/03/30 13:18:22;;;;;;;1171.10;999.90;;;;;;;22.32;43.85;100276.88;20555650;28;20042;-72
2023/03/30 13:28:44;;;;;;;660.83;600.33;;;;;;;22.30;42.66;100278.78;20547214;28;20090;-71
2023/03/30 13:39:07;;;;;;;814.45;743.40;;;;;;;22.21;41.34;100268.06;20508509;28;20035;-74
2023/03/30 13:49:10;;;;;;;664.88;604.90;;;;;;;22.17;40.13;100265.81;20556909;28;20043;-73
2023/03/30 13:59:20;;;;;;;722.30;658.60;;;;;;;22.10;40.00;100248.84;20547799;28;20042;-70
2023/03/30 14:09:26;;;;;;;642.63;584.45;;;;;;;22.04;39.26;100214.09;20561100;28;20046;-69
2023/03/30 14:19:40;;;;;;;716.92;653.58;;;;;;;21.97;38.68;100197.13;20560038;28;20045;-69
2023/03/30 14:29:45;;;;;;;768.78;701.90;;;;;;;21.90;39.21;100180.97;20546755;28;20047;-69
2023/03/30 14:39:51;;;;;;;821.85;751.60;;;;;;;21.85;38.52;100156.81;20553649;28;20411;-69
2023/03/30 14:50:13;;;;;;;830.70;760.00;;;;;;;21.85;38.68;100129.59;20553801;28;20047;-70
2023/03/30 15:00:21;;;;;;;786.20;718.08;;;;;;;21.87;38.09;100112.72;20553073;28;20040;-69
2023/03/30 15:10:35;;;;;;;1050.10;963.53;;;;;;;21.81;38.55;100086.84;20535321;28;20051;-68
2023/03/30 15:20:35;;;;;;;1179.38;999.90;;;;;;;21.72;37.59;100083.19;20534887;28;20062;-69
2023/03/30 15:30:44;;;;;;;1164.45;999.90;;;;;;;21.71;37.70;100076.25;20538401;28;20043;-69
2023/03/30 15:40:48;;;;;;;1159.35;999.90;;;;;;;21.64;37.93;100100.63;20552136;28;20051;-71
2023/03/30 15:50:54;;;;;;;1159.60;999.90;;;;;;;21.66;39.71;100112.72;20559031;28;20117;-71
2023/03/30 16:00:56;;;;;;;1159.78;999.90;;;;;;;21.64;38.76;100130.47;20568870;28;20398;-70
2023/03/30 16:11:01;;;;;;;1153.73;999.90;;;;;;;21.59;39.40;100099.22;20536759;28;20058;-72
2023/03/30 16:21:03;;;;;;;1163.22;999.90;;;;;;;21.64;39.73;100096.22;20540775;28;20494;-74
2023/03/30 16:31:15;;;;;;;1159.10;999.90;;;;;;;21.73;42.25;100078.78;20544927;28;20380;-71
2023/03/30 16:41:21;;;;;;;1163.32;999.90;;;;;;;21.75;42.84;100048.69;20556910;28;20042;-72
2023/03/30 16:51:23;;;;;;;1171.35;999.90;;;;;;;21.78;43.59;100076.59;20546918;28;20051;-72
2023/03/30 17:01:28;;;;;;;1164.17;999.90;;;;;;;21.85;45.17;100082.16;20544297;28;20126;-74
2023/03/30 17:11:28;;;;;;;1167.63;999.90;;;;;;;21.87;45.39;100073.19;20555555;28;20089;-73
2023/03/30 17:21:29;;;;;;;1166.30;999.90;;;;;;;21.87;46.38;100059.16;20540671;28;20047;-74
2023/03/30 17:31:37;;;;;;;1168.20;999.90;;;;;;;21.86;46.42;100071.50;20531504;28;20061;-73
2023/03/30 17:41:39;;;;;;;1158.68;999.90;;;;;;;21.90;46.20;100045.72;20533997;28;20039;-70
2023/03/30 17:51:42;;;;;;;1155.22;999.90;;;;;;;21.88;46.44;100037.94;20503260;28;20046;-71
2023/03/30 18:01:43;;;;;;;1145.13;999.90;;;;;;;21.89;46.50;100033.50;20522134;28;20039;-69
2023/03/30 18:11:44;;;;;;;1146.50;999.90;;;;;;;21.91;47.53;100021.03;20524109;28;20569;-72
2023/03/30 18:21:44;;;;;;;1139.97;999.90;;;;;;;21.92;47.82;100030.59;20533982;28;20038;-73
2023/03/30 18:31:48;;;;;;;1157.72;999.90;;;;;;;21.89;47.80;100094.94;20512274;28;20551;-74
2023/03/30 18:41:52;;;;;;;1150.57;999.90;;;;;;;21.87;48.11;100131.16;20534620;28;20078;-73
2023/03/30 18:52:02;;;;;;;1148.72;999.90;;;;;;;21.89;47.87;100118.69;20540236;28;20114;-74
2023/03/30 19:02:05;;;;;;;1147.95;999.90;;;;;;;21.82;48.01;100088.53;20516962;28;20051;-73
2023/03/30 19:12:06;;;;;;;1149.70;999.90;;;;;;;21.87;47.33;100077.59;20513868;28;20055;-72
2023/03/30 19:22:06;;;;;;;1145.35;999.90;;;;;;;21.85;46.68;99982.84;20510561;28;20043;-70
2023/03/30 19:32:08;;;;;;;1145.75;999.90;;;;;;;21.84;46.72;100036.53;20491922;28;20051;-71
2023/03/30 19:42:11;;;;;;;1140.85;999.90;;;;;;;21.86;47.15;100028.47;20502406;28;20051;-70
2023/03/30 19:52:12;;;;;;;1136.22;999.90;;;;;;;21.85;47.44;100019.75;20513503;28;20486;-70
2023/03/30 20:02:14;;;;;;;1139.65;999.90;;;;;;;21.85;47.62;100021.53;20512761;28;20040;-69
2023/03/30 20:12:15;;;;;;;1126.50;999.90;;;;;;;21.85;47.87;100014.47;20497300;28;20051;-70
2023/03/30 20:22:16;;;;;;;1150.43;999.90;;;;;;;21.86;48.08;100020.56;20500437;28;20044;-70
2023/03/30 20:32:16;;;;;;;1136.15;999.90;;;;;;;21.86;48.32;99999.50;20499675;28;20089;-71
2023/03/30 20:42:24;;;;;;;1123.93;999.90;;;;;;;21.87;48.79;99990.63;20526650;28;20043;-70
2023/03/30 20:52:26;;;;;;;1125.43;999.90;;;;;;;21.85;48.39;100008.34;20521755;28;20294;-69
2023/03/30 21:02:26;;;;;;;1137.65;999.90;;;;;;;21.85;48.73;100009.22;20531337;28;20134;-70
2023/03/30 21:12:28;;;;;;;1139.05;999.90;;;;;;;21.84;49.05;99977.72;20521829;28;20050;-72
2023/03/30 21:22:28;;;;;;;1138.78;999.90;;;;;;;21.82;48.74;99955.94;20528371;28;20058;-71
2023/03/30 21:32:29;;;;;;;1138.25;999.90;;;;;;;21.79;48.86;99932.47;20524933;28;20064;-70
2023/03/30 21:42:33;;;;;;;1131.95;999.90;;;;;;;21.79;48.82;99917.50;20523710;28;20147;-70
2023/03/30 21:52:34;;;;;;;1130.18;999.90;;;;;;;21.79;48.98;99948.28;20516670;28;20062;-71
2023/03/30 22:02:37;;;;;;;1126.05;999.90;;;;;;;21.79;49.00;99972.00;20522783;28;20063;-71
2023/03/30 22:12:43;;;;;;;1124.80;999.90;;;;;;;21.77;48.99;99971.31;20516341;28;20422;-70
2023/03/30 22:22:43;;;;;;;1123.75;999.90;;;;;;;21.75;49.04;99974.91;20523949;28;20142;-71
2023/03/30 22:32:44;;;;;;;1134.22;999.90;;;;;;;21.75;49.27;99972.28;20514007;28;20039;-71
2023/03/30 22:42:44;;;;;;;982.67;897.13;;;;;;;21.74;49.62;99973.25;20528718;28;20046;-70
2023/03/30 22:52:45;;;;;;;626.03;569.42;;;;;;;21.71;49.80;99964.75;20519899;28;20055;-72
2023/03/30 23:02:51;;;;;;;573.40;520.47;;;;;;;21.69;49.79;99962.25;20512590;28;20043;-72
2023/03/30 23:12:53;;;;;;;547.13;495.98;;;;;;;21.67;49.83;99948.38;20511510;28;20043;-70
2023/03/30 23:22:53;;;;;;;501.60;453.65;;;;;;;21.66;49.65;99951.16;20512942;28;20046;-69
2023/03/30 23:32:54;;;;;;;492.00;444.67;;;;;;;21.68;49.51;99957.97;20509864;28;20098;-71
2023/03/30 23:42:55;;;;;;;477.83;431.58;;;;;;;21.67;49.60;99956.28;20507163;28;20054;-69
2023/03/30 23:52:57;;;;;;;502.05;454.23;;;;;;;21.66;49.84;99943.25;20513500;28;20051;-71
